createdAt,value
2022-12-01T00:01:06.791Z,102395.88
2022-12-01T00:03:33.717Z,102393.25
2022-12-01T00:06:02.009Z,102394.94
2022-12-01T00:08:29.552Z,102388.31
2022-12-01T00:10:56.467Z,102389.50
2022-12-01T00:13:23.048Z,102384.63
2022-12-01T00:15:49.595Z,102400.94
2022-12-01T00:18:16.319Z,102400.69
2022-12-01T00:20:42.906Z,102411.13
2022-12-01T00:23:09.748Z,102406.16
2022-12-01T00:25:36.413Z,102396.75
2022-12-01T00:28:03.087Z,102410.88
2022-12-01T00:30:29.859Z,102413.66
2022-12-01T00:32:56.379Z,102396.44
2022-12-01T00:35:23.157Z,102405.19
2022-12-01T00:37:49.660Z,102387.78
2022-12-01T00:40:16.245Z,102396.28
2022-12-01T00:42:42.732Z,102406.13
2022-12-01T00:45:09.943Z,102413.19
2022-12-01T00:47:36.533Z,102406.13
2022-12-01T00:50:03.674Z,102409.72
2022-12-01T00:52:30.174Z,102413.53
2022-12-01T00:54:56.666Z,102410.94
2022-12-01T00:57:23.216Z,102419.56
2022-12-01T00:59:49.990Z,102420.25
2022-12-01T01:02:16.818Z,102406.31
2022-12-01T01:04:43.391Z,102415.88
2022-12-01T01:07:09.937Z,102417.63
2022-12-01T01:09:36.662Z,102409.16
2022-12-01T01:12:03.252Z,102411.25
2022-12-01T01:14:30.016Z,102421.00
2022-12-01T01:16:56.605Z,102415.16
2022-12-01T01:19:23.809Z,102415.22
2022-12-01T01:21:50.415Z,102419.78
2022-12-01T01:24:17.003Z,102414.81
2022-12-01T01:26:43.547Z,102417.50
2022-12-01T01:29:10.183Z,102423.66
2022-12-01T01:31:36.743Z,102421.22
2022-12-01T01:34:03.959Z,102419.44
2022-12-01T01:36:31.395Z,102426.16
2022-12-01T01:38:57.946Z,102413.56
2022-12-01T01:41:24.892Z,102418.03
2022-12-01T01:43:57.673Z,102418.09
2022-12-01T01:46:27.569Z,102431.38
2022-12-01T01:49:02.178Z,102427.19
2022-12-01T01:51:46.708Z,102436.31
2022-12-01T01:54:22.334Z,102440.53
2022-12-01T01:56:51.770Z,102450.88
2022-12-01T01:59:22.639Z,102451.03
2022-12-01T02:01:56.860Z,102446.19
2022-12-01T02:04:25.108Z,102449.00
2022-12-01T02:06:51.904Z,102441.47
2022-12-01T02:09:18.626Z,102438.25
2022-12-01T02:11:58.450Z,102442.78
2022-12-01T02:14:49.945Z,102441.34
2022-12-01T02:17:43.491Z,102446.63
2022-12-01T02:20:21.856Z,102445.72
2022-12-01T02:23:20.383Z,102443.13
2022-12-01T02:26:31.197Z,102449.00
2022-12-01T02:29:22.314Z,102446.00
2022-12-01T02:31:59.274Z,102439.69
2022-12-01T02:34:45.047Z,102444.22
2022-12-01T02:37:20.503Z,102455.56
2022-12-01T02:40:24.767Z,102460.66
2022-12-01T02:43:07.677Z,102469.09
2022-12-01T02:45:45.903Z,102467.22
2022-12-01T02:48:19.442Z,102464.72
2022-12-01T02:50:46.628Z,102467.38
2022-12-01T02:53:18.995Z,102470.09
2022-12-01T02:55:51.664Z,102483.03
2022-12-01T02:58:18.446Z,102491.03
2022-12-01T03:01:04.427Z,102483.91
2022-12-01T03:04:10.922Z,102481.72
2022-12-01T03:07:02.583Z,102470.81
2022-12-01T03:09:47.562Z,102472.13
2022-12-01T03:12:34.564Z,102465.88
2022-12-01T03:15:01.624Z,102458.63
2022-12-01T03:17:36.289Z,102450.78
2022-12-01T03:20:08.741Z,102445.34
2022-12-01T03:22:42.532Z,102433.44
2022-12-01T03:25:12.088Z,102426.69
2022-12-01T03:28:00.607Z,102434.31
2022-12-01T03:30:32.385Z,102429.88
2022-12-01T03:33:05.170Z,102430.06
2022-12-01T03:35:39.570Z,102427.56
2022-12-01T03:38:13.389Z,102421.66
2022-12-01T03:40:41.389Z,102429.56
2022-12-01T03:43:11.941Z,102434.22
2022-12-01T03:45:52.611Z,102418.66
2022-12-01T03:48:19.381Z,102428.50
2022-12-01T03:51:14.598Z,102429.41
2022-12-01T03:53:51.052Z,102426.81
2022-12-01T03:56:22.351Z,102426.50
2022-12-01T03:58:51.258Z,102425.72
2022-12-01T04:01:17.996Z,102425.06
2022-12-01T04:03:46.622Z,102427.06
2022-12-01T04:06:13.695Z,102435.56
2022-12-01T04:08:40.247Z,102429.75
2022-12-01T04:11:32.212Z,102430.84
2022-12-01T04:13:59.135Z,102423.78
2022-12-01T04:16:25.839Z,102432.88
2022-12-01T04:18:52.439Z,102439.09
2022-12-01T04:21:19.017Z,102446.00
2022-12-01T04:24:00.507Z,102430.34
2022-12-01T04:26:32.336Z,102423.22
2022-12-01T04:29:00.699Z,102432.72
2022-12-01T04:31:27.841Z,102440.69
2022-12-01T04:33:58.850Z,102430.44
2022-12-01T04:36:26.231Z,102419.59
2022-12-01T04:38:53.127Z,102425.50
2022-12-01T04:41:19.767Z,102426.44
2022-12-01T04:43:46.281Z,102427.84
2022-12-01T04:46:13.013Z,102428.78
2022-12-01T04:48:40.255Z,102430.22
2022-12-01T04:51:08.408Z,102440.63
2022-12-01T04:53:36.296Z,102433.91
2022-12-01T04:56:03.725Z,102438.09
2022-12-01T04:58:32.217Z,102441.72
2022-12-01T05:01:06.593Z,102437.44
2022-12-01T05:03:37.294Z,102435.66
2022-12-01T05:06:15.272Z,102425.59
2022-12-01T05:08:42.224Z,102417.75
2022-12-01T05:11:11.765Z,102422.22
2022-12-01T05:13:43.553Z,102433.56
2022-12-01T05:16:16.169Z,102425.75
2022-12-01T05:18:43.352Z,102428.00
2022-12-01T05:21:11.183Z,102427.94
2022-12-01T05:23:39.079Z,102425.00
2022-12-01T05:26:08.018Z,102422.81
2022-12-01T05:28:35.384Z,102430.25
2022-12-01T05:31:02.654Z,102422.63
2022-12-01T05:33:29.739Z,102428.69
2022-12-01T05:35:56.343Z,102428.75
2022-12-01T05:38:22.899Z,102430.25
2022-12-01T05:40:53.139Z,102428.00
2022-12-01T05:43:26.868Z,102425.81
2022-12-01T05:45:55.964Z,102431.47
2022-12-01T05:48:23.001Z,102434.16
2022-12-01T05:50:49.471Z,102429.03
2022-12-01T05:53:16.235Z,102436.00
2022-12-01T05:55:42.928Z,102430.97
2022-12-01T05:58:09.914Z,102436.84
2022-12-01T06:00:43.862Z,102444.59
2022-12-01T06:03:12.087Z,102444.66
2022-12-01T06:05:38.631Z,102443.06
2022-12-01T06:08:05.292Z,102441.13
2022-12-01T06:10:31.840Z,102441.31
2022-12-01T06:12:58.444Z,102448.34
2022-12-01T06:15:24.966Z,102445.75
2022-12-01T06:17:51.486Z,102450.09
2022-12-01T06:20:18.167Z,102445.84
2022-12-01T06:22:44.669Z,102457.16
2022-12-01T06:25:11.339Z,102455.56
2022-12-01T06:27:37.889Z,102456.50
2022-12-01T06:30:05.115Z,102453.22
2022-12-01T06:32:31.617Z,102462.13
2022-12-01T06:34:58.319Z,102466.66
2022-12-01T06:37:24.860Z,102462.38
2022-12-01T06:39:52.499Z,102462.22
2022-12-01T06:42:19.097Z,102464.63
2022-12-01T06:44:46.679Z,102465.22
2022-12-01T06:47:13.198Z,102467.84
2022-12-01T06:49:39.729Z,102467.91
2022-12-01T06:52:06.319Z,102462.22
2022-12-01T06:54:33.499Z,102463.44
2022-12-01T06:56:59.996Z,102465.28
2022-12-01T06:59:26.790Z,102464.78
2022-12-01T07:01:53.704Z,102457.13
2022-12-01T07:04:20.375Z,102462.34
2022-12-01T07:06:46.910Z,102459.75
2022-12-01T07:09:13.467Z,102459.75
2022-12-01T07:11:39.974Z,102471.00
2022-12-01T07:14:06.756Z,102475.06
2022-12-01T07:16:33.335Z,102480.91
2022-12-01T07:19:00.028Z,102477.50
2022-12-01T07:21:26.623Z,102482.28
2022-12-01T07:23:54.402Z,102492.81
2022-12-01T07:26:20.991Z,102485.66
2022-12-01T07:28:47.601Z,102491.38
2022-12-01T07:31:17.217Z,102488.09
2022-12-01T07:33:43.856Z,102496.09
2022-12-01T07:36:11.793Z,102487.69
2022-12-01T07:38:39.411Z,102491.28
2022-12-01T07:41:08.872Z,102497.69
2022-12-01T07:43:35.965Z,102511.31
2022-12-01T07:46:05.677Z,102511.31
2022-12-01T07:48:32.283Z,102513.13
2022-12-01T07:50:58.770Z,102508.16
2022-12-01T07:53:25.346Z,102518.53
2022-12-01T07:55:51.889Z,102514.91
2022-12-01T07:58:18.393Z,102509.00
2022-12-01T08:00:45.112Z,102524.38
2022-12-01T08:03:11.845Z,102523.31
2022-12-01T08:05:38.449Z,102522.38
2022-12-01T08:08:05.382Z,102531.72
2022-12-01T08:10:32.181Z,102539.28
2022-12-01T08:12:58.715Z,102540.81
2022-12-01T08:15:25.309Z,102543.94
2022-12-01T08:17:51.924Z,102547.63
2022-12-01T08:20:23.745Z,102537.72
2022-12-01T08:22:50.619Z,102542.44
2022-12-01T08:25:17.227Z,102535.84
2022-12-01T08:27:43.737Z,102543.25
2022-12-01T08:30:10.680Z,102545.69
2022-12-01T08:32:37.205Z,102542.59
2022-12-01T08:35:03.914Z,102555.28
2022-12-01T08:37:30.413Z,102555.94
2022-12-01T08:39:56.918Z,102565.13
2022-12-01T08:42:23.457Z,102563.00
2022-12-01T08:44:49.986Z,102562.63
2022-12-01T08:47:18.890Z,102563.03
2022-12-01T08:49:45.702Z,102564.19
2022-12-01T08:52:12.306Z,102571.22
2022-12-01T08:54:38.800Z,102568.09
2022-12-01T08:57:05.334Z,102560.66
2022-12-01T08:59:32.019Z,102568.66
2022-12-01T09:02:00.464Z,102572.63
2022-12-01T09:04:30.232Z,102560.03
2022-12-01T09:06:57.923Z,102563.09
2022-12-01T09:09:28.400Z,102554.81
2022-12-01T09:11:55.914Z,102567.41
2022-12-01T09:14:23.100Z,102565.81
2022-12-01T09:16:50.689Z,102564.72
2022-12-01T09:19:24.163Z,102576.38
2022-12-01T09:21:51.431Z,102578.31
2022-12-01T09:24:17.976Z,102566.53
2022-12-01T09:26:44.513Z,102572.97
2022-12-01T09:29:14.073Z,102569.59
2022-12-01T09:31:41.643Z,102581.84
2022-12-01T09:34:13.192Z,102603.75
2022-12-01T09:36:40.936Z,102598.91
2022-12-01T09:39:09.083Z,102584.38
2022-12-01T09:41:39.389Z,102586.38
2022-12-01T09:44:21.873Z,102596.94
2022-12-01T09:46:56.281Z,102589.78
2022-12-01T09:49:26.377Z,102591.44
2022-12-01T09:51:54.708Z,102596.19
2022-12-01T09:54:21.581Z,102592.94
2022-12-01T09:56:53.132Z,102596.91
2022-12-01T09:59:26.912Z,102586.06
2022-12-01T10:02:01.363Z,102576.19
2022-12-01T10:04:36.072Z,102568.69
2022-12-01T10:07:17.145Z,102571.81
2022-12-01T10:09:55.274Z,102570.31
2022-12-01T10:12:27.578Z,102568.31
2022-12-01T10:15:12.775Z,102573.44
2022-12-01T10:18:02.866Z,102559.22
2022-12-01T10:20:42.477Z,102568.34
2022-12-01T10:23:41.314Z,102562.00
2022-12-01T10:26:17.794Z,102568.25
2022-12-01T10:29:12.502Z,102570.91
2022-12-01T10:31:51.766Z,102566.16
2022-12-01T10:34:28.990Z,102564.25
2022-12-01T10:36:57.077Z,102572.69
2022-12-01T10:39:35.325Z,102569.47
2022-12-01T10:42:19.515Z,102565.88
2022-12-01T10:44:46.603Z,102569.84
2022-12-01T10:47:24.825Z,102568.75
2022-12-01T10:49:52.858Z,102582.97
2022-12-01T10:52:38.327Z,102577.81
2022-12-01T10:55:26.314Z,102584.13
2022-12-01T10:57:55.695Z,102600.84
2022-12-01T11:00:58.187Z,102602.41
2022-12-01T11:03:22.111Z,102607.88
2022-12-01T11:05:55.369Z,102618.03
2022-12-01T11:08:42.095Z,102630.03
2022-12-01T11:11:28.676Z,102629.84
2022-12-01T11:13:58.106Z,102632.81
2022-12-01T11:16:35.606Z,102652.41
2022-12-01T11:19:14.224Z,102671.69
2022-12-01T11:21:52.867Z,102695.34
2022-12-01T11:24:55.840Z,102684.81
2022-12-01T11:27:29.566Z,102689.31
2022-12-01T11:30:04.790Z,102673.78
2022-12-01T11:32:35.546Z,102681.06
2022-12-01T11:35:21.982Z,102689.50
2022-12-01T11:40:47.314Z,102721.28
2022-12-01T11:43:24.924Z,102726.28
2022-12-01T11:45:53.613Z,102691.94
2022-12-01T11:48:25.858Z,102668.84
2022-12-01T11:51:07.826Z,102680.13
2022-12-01T11:53:40.791Z,102699.50
2022-12-01T11:56:13.059Z,102742.72
2022-12-01T11:58:39.964Z,102746.88
2022-12-01T12:01:22.148Z,102830.59
2022-12-01T12:04:22.854Z,102899.78
2022-12-01T12:07:02.307Z,102952.31
2022-12-01T12:10:07.093Z,103073.59
2022-12-01T12:12:52.377Z,102476.94
2022-12-01T12:15:38.245Z,102581.66
2022-12-01T12:18:36.076Z,102563.38
2022-12-01T12:21:28.353Z,102565.38
2022-12-01T12:24:15.856Z,102625.06
2022-12-01T12:26:52.383Z,102627.09
2022-12-01T12:29:47.034Z,102592.75
2022-12-01T12:32:28.601Z,102593.97
2022-12-01T12:34:57.887Z,102607.47
2022-12-01T12:37:48.818Z,102614.59
2022-12-01T12:40:24.163Z,102631.31
2022-12-01T12:43:05.870Z,102636.88
2022-12-01T12:45:57.110Z,102634.13
2022-12-01T12:48:23.606Z,102586.84
2022-12-01T12:51:13.213Z,102604.09
2022-12-01T12:53:59.925Z,102630.97
2022-12-01T12:56:30.665Z,102582.41
2022-12-01T12:59:03.395Z,102609.41
2022-12-01T13:01:41.044Z,102631.91
2022-12-01T13:04:10.006Z,102657.00
2022-12-01T13:06:46.584Z,102647.97
2022-12-01T13:09:16.700Z,102645.56
2022-12-01T13:12:04.748Z,102622.34
2022-12-01T13:14:39.301Z,102613.16
2022-12-01T13:17:20.941Z,102622.19
2022-12-01T13:19:48.534Z,102635.56
2022-12-01T13:22:18.064Z,102635.28
2022-12-01T13:24:44.909Z,102636.84
2022-12-01T13:27:19.592Z,102640.63
2022-12-01T13:29:52.463Z,102630.44
2022-12-01T13:32:40.414Z,102633.50
2022-12-01T13:35:29.180Z,102621.94
2022-12-01T13:38:12.377Z,102622.09
2022-12-01T13:40:39.533Z,102630.72
2022-12-01T13:43:18.696Z,102634.19
2022-12-01T13:45:46.072Z,102623.03
2022-12-01T13:48:37.435Z,102629.28
2022-12-01T13:51:04.984Z,102631.09
2022-12-01T13:53:38.632Z,102633.22
2022-12-01T13:56:17.490Z,102639.50
2022-12-01T13:58:46.084Z,102632.56
2022-12-01T14:01:22.069Z,102637.53
2022-12-01T14:04:03.683Z,102646.31
2022-12-01T14:06:38.696Z,102633.75
2022-12-01T14:09:13.666Z,102626.63
2022-12-01T14:11:40.529Z,102618.97
2022-12-01T14:14:09.824Z,102632.59
2022-12-01T14:16:47.716Z,102631.72
2022-12-01T14:19:45.329Z,102643.50
2022-12-01T14:22:44.052Z,102631.22
2022-12-01T14:25:19.773Z,102624.31
2022-12-01T14:27:49.039Z,102703.09
2022-12-01T14:30:41.004Z,102672.56
2022-12-01T14:33:45.009Z,102682.97
2022-12-01T14:36:23.416Z,102711.50
2022-12-01T14:39:03.197Z,102970.69
2022-12-01T14:41:39.798Z,102747.09
2022-12-01T14:44:16.367Z,102705.78
2022-12-01T14:47:00.528Z,102724.06
2022-12-01T14:49:32.199Z,102704.28
2022-12-01T14:52:04.631Z,102698.25
2022-12-01T14:54:47.097Z,102695.56
2022-12-01T14:57:18.321Z,102685.59
2022-12-01T14:59:44.909Z,102684.06
2022-12-01T15:02:12.453Z,102674.41
2022-12-01T15:05:08.916Z,102714.75
2022-12-01T15:07:40.590Z,102684.41
2022-12-01T15:10:23.834Z,102663.47
2022-12-01T15:12:52.012Z,102666.00
2022-12-01T15:15:24.518Z,102655.50
2022-12-01T15:17:52.500Z,102649.28
2022-12-01T15:20:47.940Z,102632.66
2022-12-01T15:23:17.152Z,102717.69
2022-12-01T15:25:46.154Z,102626.19
2022-12-01T15:28:14.170Z,102602.59
2022-12-01T15:30:45.508Z,102635.44
2022-12-01T15:33:36.958Z,102610.41
2022-12-01T15:36:04.433Z,102637.22
2022-12-01T15:38:36.777Z,102605.94
2022-12-01T15:41:28.409Z,102594.94
2022-12-01T15:44:01.965Z,102598.44
2022-12-01T15:46:30.883Z,102622.31
2022-12-01T15:49:17.969Z,102614.53
2022-12-01T15:51:45.826Z,102728.19
2022-12-01T15:54:22.865Z,102601.78
2022-12-01T15:56:55.784Z,102601.03
2022-12-01T15:59:27.295Z,102608.91
2022-12-01T16:01:54.072Z,102599.03
2022-12-01T16:04:29.458Z,102599.72
2022-12-01T16:06:59.311Z,102590.03
2022-12-01T16:09:31.467Z,102590.63
2022-12-01T16:12:13.070Z,102576.53
2022-12-01T16:15:15.439Z,102585.88
2022-12-01T16:17:49.323Z,102572.41
2022-12-01T16:20:34.235Z,102572.44
2022-12-01T16:23:10.187Z,102558.25
2022-12-01T16:25:45.579Z,102551.06
2022-12-01T16:28:37.342Z,102543.50
2022-12-01T16:31:05.704Z,102528.31
2022-12-01T16:33:37.580Z,102512.09
2022-12-01T16:36:04.412Z,102499.19
2022-12-01T16:38:30.929Z,102498.81
2022-12-01T16:40:59.963Z,102499.75
2022-12-01T16:43:28.608Z,102482.69
2022-12-01T16:46:00.994Z,102478.84
2022-12-01T16:48:27.535Z,102471.28
2022-12-01T16:50:54.711Z,102473.81
2022-12-01T16:53:21.451Z,102459.19
2022-12-01T16:55:55.139Z,102462.81
2022-12-01T16:58:22.078Z,102459.72
2022-12-01T17:00:52.576Z,102465.88
2022-12-01T17:03:25.065Z,102458.22
2022-12-01T17:05:52.733Z,102460.25
2022-12-01T17:08:19.753Z,102462.41
2022-12-01T17:10:50.248Z,102460.16
2022-12-01T17:13:17.795Z,102546.94
2022-12-01T17:15:49.378Z,102471.06
2022-12-01T17:18:17.987Z,102489.47
2022-12-01T17:20:44.750Z,102470.66
2022-12-01T17:23:11.642Z,102472.59
2022-12-01T17:25:42.183Z,102466.66
2022-12-01T17:28:08.696Z,102462.25
2022-12-01T17:30:36.946Z,102454.03
2022-12-01T17:33:03.540Z,102463.38
2022-12-01T17:35:30.195Z,102450.50
2022-12-01T17:37:56.740Z,102438.38
2022-12-01T17:40:23.238Z,102438.38
2022-12-01T17:42:51.150Z,102431.50
2022-12-01T17:45:18.510Z,102424.94
2022-12-01T17:47:45.213Z,102431.91
2022-12-01T17:50:12.260Z,102420.75
2022-12-01T17:52:38.956Z,102418.22
2022-12-01T17:55:06.237Z,102409.09
2022-12-01T17:57:32.880Z,102412.59
2022-12-01T18:00:01.430Z,102417.06
2022-12-01T18:02:28.227Z,102411.28
2022-12-01T18:04:54.939Z,102408.16
2022-12-01T18:07:21.867Z,102397.06
2022-12-01T18:09:48.596Z,102395.63
2022-12-01T18:12:15.138Z,102411.63
2022-12-01T18:14:41.654Z,102409.22
2022-12-01T18:17:08.168Z,102396.75
2022-12-01T18:19:34.756Z,102387.31
2022-12-01T18:22:01.291Z,102385.94
2022-12-01T18:24:27.853Z,102391.97
2022-12-01T18:26:54.908Z,102395.34
2022-12-01T18:29:26.125Z,102383.16
2022-12-01T18:31:57.335Z,102382.97
2022-12-01T18:34:25.573Z,102375.31
2022-12-01T18:36:52.114Z,102372.81
2022-12-01T18:39:18.832Z,102377.78
2022-12-01T18:41:45.342Z,102374.88
2022-12-01T18:44:11.957Z,102380.34
2022-12-01T18:46:38.772Z,102379.94
2022-12-01T18:49:06.734Z,102380.13
2022-12-01T18:51:36.230Z,102385.16
2022-12-01T18:54:04.209Z,102382.53
2022-12-01T18:56:31.659Z,102385.25
2022-12-01T18:59:00.948Z,102391.44
2022-12-01T19:01:32.088Z,102385.66
2022-12-01T19:03:59.649Z,102387.50
2022-12-01T19:06:27.234Z,102381.63
2022-12-01T19:08:54.498Z,102377.78
2022-12-01T19:11:21.969Z,102388.19
2022-12-01T19:13:48.707Z,102391.81
2022-12-01T19:16:18.569Z,102385.75
2022-12-01T19:18:46.077Z,102391.03
2022-12-01T19:21:16.171Z,102381.72
2022-12-01T19:23:43.646Z,102397.28
2022-12-01T19:26:12.403Z,102392.91
2022-12-01T19:28:40.381Z,102396.50
2022-12-01T19:31:12.688Z,102390.44
2022-12-01T19:33:39.715Z,102380.97
2022-12-01T19:36:12.085Z,102384.41
2022-12-01T19:38:39.302Z,102374.91
2022-12-01T19:41:07.266Z,102378.00
2022-12-01T19:43:35.013Z,102361.13
2022-12-01T19:46:06.826Z,102366.59
2022-12-01T19:48:33.557Z,102356.84
2022-12-01T19:51:00.221Z,102350.03
2022-12-01T19:53:31.864Z,102362.25
2022-12-01T19:56:03.909Z,102362.84
2022-12-01T19:58:33.331Z,102364.00
2022-12-01T20:01:11.860Z,102360.22
2022-12-01T20:03:40.629Z,102349.13
2022-12-01T20:06:12.960Z,102354.25
2022-12-01T20:08:40.065Z,102354.16
2022-12-01T20:11:07.774Z,102347.19
2022-12-01T20:13:36.344Z,102349.31
2022-12-01T20:16:12.058Z,102353.31
2022-12-01T20:18:39.567Z,102350.47
2022-12-01T20:21:16.459Z,102355.09
2022-12-01T20:23:47.189Z,102367.44
2022-12-01T20:26:15.449Z,102367.94
2022-12-01T20:28:42.836Z,102366.19
2022-12-01T20:31:15.930Z,102358.38
2022-12-01T20:33:43.260Z,102372.66
2022-12-01T20:36:10.612Z,102370.72
2022-12-01T20:38:38.060Z,102366.88
2022-12-01T20:41:06.123Z,102361.31
2022-12-01T20:43:33.327Z,102363.97
2022-12-01T20:46:00.340Z,102347.91
2022-12-01T20:48:27.647Z,102345.81
2022-12-01T20:50:54.312Z,102319.28
2022-12-01T20:53:20.988Z,102320.94
2022-12-01T20:55:47.524Z,102309.22
2022-12-01T20:58:14.042Z,102308.41
2022-12-01T21:00:45.298Z,102310.94
2022-12-01T21:03:13.128Z,102303.78
2022-12-01T21:05:41.704Z,102305.00
2022-12-01T21:08:11.425Z,102294.19
2022-12-01T21:10:40.360Z,102289.22
2022-12-01T21:13:38.952Z,102293.69
2022-12-01T21:16:14.116Z,102290.59
2022-12-01T21:18:43.651Z,102286.88
2022-12-01T21:21:21.815Z,102284.91
2022-12-01T21:23:59.771Z,102272.59
2022-12-01T21:26:26.290Z,102274.16
2022-12-01T21:28:55.493Z,102276.56
2022-12-01T21:31:22.060Z,102287.97
2022-12-01T21:33:48.572Z,102285.47
2022-12-01T21:36:18.449Z,102284.63
2022-12-01T21:38:46.349Z,102277.63
2022-12-01T21:41:20.630Z,102283.69
2022-12-01T21:43:47.218Z,102281.34
2022-12-01T21:46:16.166Z,102277.19
2022-12-01T21:48:43.920Z,102271.59
2022-12-01T21:51:22.926Z,102263.47
2022-12-01T21:53:51.492Z,102269.66
2022-12-01T21:56:21.458Z,102260.22
2022-12-01T21:58:49.087Z,102262.84
2022-12-01T22:01:30.837Z,102251.19
2022-12-01T22:04:02.376Z,102246.63
2022-12-01T22:06:41.066Z,102239.22
2022-12-01T22:09:34.067Z,102238.38
2022-12-01T22:12:29.442Z,102222.84
2022-12-01T22:15:00.845Z,102222.47
2022-12-01T22:17:27.988Z,102230.31
2022-12-01T22:19:59.744Z,102229.19
2022-12-01T22:22:28.496Z,102223.78
2022-12-01T22:25:01.887Z,102204.44
2022-12-01T22:27:43.292Z,102209.28
2022-12-01T22:30:09.742Z,102215.94
2022-12-01T22:32:44.155Z,102225.38
2022-12-01T22:35:16.550Z,102217.44
2022-12-01T22:37:48.349Z,102209.50
2022-12-01T22:40:39.565Z,102195.28
2022-12-01T22:43:18.365Z,102196.00
2022-12-01T22:45:47.714Z,102201.88
2022-12-01T22:48:33.157Z,102198.44
2022-12-01T22:51:24.408Z,102197.06
2022-12-01T22:53:56.955Z,102193.91
2022-12-01T22:56:23.381Z,102193.28
2022-12-01T22:58:49.880Z,102190.13
2022-12-01T23:01:33.024Z,102193.91
2022-12-01T23:04:08.312Z,102203.63
2022-12-01T23:07:02.879Z,102204.34
2022-12-01T23:09:42.362Z,102198.81
2022-12-01T23:12:11.768Z,102196.00
2022-12-01T23:14:41.337Z,102203.00
2022-12-01T23:17:14.917Z,102186.59
2022-12-01T23:19:41.478Z,102183.78
2022-12-01T23:22:09.590Z,102176.75
2022-12-01T23:24:36.116Z,102173.13
2022-12-01T23:27:02.891Z,102167.16
2022-12-01T23:29:30.896Z,102161.59
2022-12-01T23:31:57.623Z,102163.28
2022-12-01T23:34:24.155Z,102162.63
2022-12-01T23:36:50.780Z,102164.53
2022-12-01T23:39:19.037Z,102157.63
2022-12-01T23:41:48.490Z,102163.16
2022-12-01T23:44:34.407Z,102156.28
2022-12-01T23:47:01.212Z,102149.78
2022-12-01T23:49:31.878Z,102165.88
2022-12-01T23:52:01.186Z,102165.13
2022-12-01T23:54:32.870Z,102157.50
2022-12-01T23:57:09.981Z,102169.72
2022-12-01T23:59:37.899Z,102146.22
